createdAt,value
2018-11-29T00:00:27.518Z,7.80
2018-11-29T00:02:56.212Z,7.80
2018-11-29T00:05:24.733Z,7.80
2018-11-29T00:07:53.607Z,7.70
2018-11-29T00:10:22.091Z,7.70
2018-11-29T00:12:50.600Z,7.70
2018-11-29T00:15:19.084Z,7.70
2018-11-29T00:17:47.639Z,7.70
2018-11-29T00:20:17.235Z,7.70
2018-11-29T00:22:46.522Z,7.60
2018-11-29T00:25:16.128Z,7.70
2018-11-29T00:27:45.234Z,7.70
2018-11-29T00:30:18.525Z,7.70
2018-11-29T00:39:46.347Z,7.70
2018-11-29T00:42:14.832Z,7.70
2018-11-29T00:44:43.303Z,7.70
2018-11-29T00:47:11.762Z,7.70
2018-11-29T00:49:40.267Z,7.70
2018-11-29T00:52:08.850Z,7.70
2018-11-29T00:54:37.405Z,7.70
2018-11-29T00:57:06.231Z,7.70
2018-11-29T00:59:34.859Z,7.70
2018-11-29T01:02:03.408Z,7.60
2018-11-29T01:04:32.093Z,7.60
2018-11-29T01:07:00.592Z,7.60
2018-11-29T01:09:29.028Z,7.60
2018-11-29T01:11:57.523Z,7.60
2018-11-29T01:14:26.247Z,7.60
2018-11-29T01:16:54.823Z,7.60
2018-11-29T01:19:23.491Z,7.60
2018-11-29T01:21:52.245Z,7.60
2018-11-29T01:24:20.754Z,7.60
2018-11-29T01:26:49.246Z,7.60
2018-11-29T01:29:17.711Z,7.60
2018-11-29T01:31:46.239Z,7.60
2018-11-29T01:34:14.666Z,7.60
2018-11-29T01:36:43.155Z,7.60
2018-11-29T01:39:11.663Z,7.50
2018-11-29T01:41:40.131Z,7.60
2018-11-29T01:44:08.627Z,7.50
2018-11-29T01:46:37.174Z,7.50
2018-11-29T01:49:05.771Z,7.50
2018-11-29T01:51:34.258Z,7.50
2018-11-29T01:54:02.869Z,7.60
2018-11-29T01:56:31.326Z,7.60
2018-11-29T01:58:59.865Z,7.60
2018-11-29T02:01:28.376Z,7.60
2018-11-29T02:03:56.965Z,7.60
2018-11-29T02:06:25.522Z,7.50
2018-11-29T02:08:54.042Z,7.50
2018-11-29T02:11:22.614Z,7.50
2018-11-29T02:13:51.103Z,7.50
2018-11-29T02:16:19.582Z,7.50
2018-11-29T02:18:48.077Z,7.50
2018-11-29T02:21:16.632Z,7.50
2018-11-29T02:23:45.269Z,7.50
2018-11-29T02:26:13.811Z,7.50
2018-11-29T02:28:47.022Z,7.40
2018-11-29T02:31:15.754Z,7.40
2018-11-29T02:33:44.280Z,7.40
2018-11-29T02:36:12.791Z,7.50
2018-11-29T02:38:41.252Z,7.50
2018-11-29T02:41:09.802Z,7.50
2018-11-29T02:43:38.321Z,7.50
2018-11-29T02:46:06.896Z,7.50
2018-11-29T02:48:35.388Z,7.50
2018-11-29T02:51:03.862Z,7.50
2018-11-29T02:53:32.351Z,7.50
2018-11-29T02:56:01.879Z,7.50
2018-11-29T02:58:30.365Z,7.50
2018-11-29T03:00:58.915Z,7.60
2018-11-29T03:03:27.418Z,7.60
2018-11-29T03:05:55.903Z,7.60
2018-11-29T03:08:24.356Z,7.60
2018-11-29T03:10:53.142Z,7.60
2018-11-29T03:13:21.623Z,7.60
2018-11-29T03:15:50.098Z,7.60
2018-11-29T03:18:18.603Z,7.60
2018-11-29T03:20:47.085Z,7.60
2018-11-29T03:23:15.558Z,7.60
2018-11-29T03:25:44.098Z,7.60
2018-11-29T03:28:12.632Z,7.60
2018-11-29T03:30:41.143Z,7.60
2018-11-29T03:33:09.600Z,7.60
2018-11-29T03:35:38.107Z,7.70
2018-11-29T03:38:06.793Z,7.70
2018-11-29T03:40:35.274Z,7.70
2018-11-29T03:43:03.725Z,7.70
2018-11-29T03:45:32.253Z,7.70
2018-11-29T03:48:00.905Z,7.70
2018-11-29T03:50:29.351Z,7.70
2018-11-29T03:52:57.872Z,7.70
2018-11-29T03:55:26.409Z,7.70
2018-11-29T03:57:54.910Z,7.70
2018-11-29T04:00:23.394Z,7.70
2018-11-29T04:02:51.922Z,7.70
2018-11-29T04:05:20.362Z,7.70
2018-11-29T04:07:48.910Z,7.70
2018-11-29T04:10:17.459Z,7.70
2018-11-29T04:12:45.902Z,7.70
2018-11-29T04:15:15.867Z,7.70
2018-11-29T04:17:44.694Z,7.70
2018-11-29T04:20:16.262Z,7.70
2018-11-29T04:22:44.778Z,7.70
2018-11-29T04:25:14.179Z,7.70
2018-11-29T04:27:42.638Z,7.70
2018-11-29T04:30:13.309Z,7.70
2018-11-29T04:32:41.730Z,7.70
2018-11-29T04:35:10.844Z,7.60
2018-11-29T04:37:39.693Z,7.60
2018-11-29T04:40:13.254Z,7.70
2018-11-29T04:42:41.731Z,7.70
2018-11-29T04:45:12.358Z,7.70
2018-11-29T04:47:40.891Z,7.70
2018-11-29T04:50:09.435Z,7.70
2018-11-29T04:52:37.926Z,7.70
2018-11-29T04:55:07.605Z,7.70
2018-11-29T04:57:36.115Z,7.70
2018-11-29T05:00:11.463Z,7.70
2018-11-29T05:02:39.938Z,7.70
2018-11-29T05:05:08.912Z,7.70
2018-11-29T05:07:37.538Z,7.70
2018-11-29T05:10:07.846Z,7.70
2018-11-29T05:12:36.786Z,7.70
2018-11-29T05:15:07.451Z,7.80
2018-11-29T05:17:35.910Z,7.70
2018-11-29T05:20:05.206Z,7.70
2018-11-29T05:22:33.710Z,7.70
2018-11-29T05:25:02.226Z,7.70
2018-11-29T05:27:30.750Z,7.70
2018-11-29T05:29:59.294Z,7.70
2018-11-29T05:32:27.733Z,7.70
2018-11-29T05:34:56.256Z,7.70
2018-11-29T05:37:24.714Z,7.70
2018-11-29T05:39:53.184Z,7.70
2018-11-29T05:42:21.650Z,7.70
2018-11-29T05:44:50.179Z,7.70
2018-11-29T05:47:18.654Z,7.70
2018-11-29T05:49:47.122Z,7.70
2018-11-29T05:52:15.594Z,7.70
2018-11-29T05:54:44.145Z,7.70
2018-11-29T05:57:12.655Z,7.60
2018-11-29T05:59:41.140Z,7.60
2018-11-29T06:02:09.648Z,7.60
2018-11-29T06:04:38.139Z,7.60
2018-11-29T06:07:06.711Z,7.60
2018-11-29T06:09:35.161Z,7.60
2018-11-29T06:12:03.718Z,7.60
2018-11-29T06:14:32.226Z,7.60
2018-11-29T06:17:00.730Z,7.60
2018-11-29T06:19:29.273Z,7.60
2018-11-29T06:21:57.806Z,7.60
2018-11-29T06:24:26.292Z,7.60
2018-11-29T06:26:54.753Z,7.60
2018-11-29T06:29:23.287Z,7.60
2018-11-29T06:31:51.830Z,7.60
2018-11-29T06:34:20.323Z,7.60
2018-11-29T06:36:48.768Z,7.60
2018-11-29T06:39:17.238Z,7.60
2018-11-29T06:41:45.762Z,7.60
2018-11-29T06:44:14.212Z,7.60
2018-11-29T06:46:42.759Z,7.70
2018-11-29T06:49:11.278Z,7.70
2018-11-29T06:51:39.759Z,7.70
2018-11-29T06:54:08.251Z,7.70
2018-11-29T06:56:36.747Z,7.80
2018-11-29T06:59:05.458Z,7.70
2018-11-29T07:02:37.422Z,7.70
2018-11-29T07:05:06.323Z,7.80
2018-11-29T07:07:34.875Z,7.80
2018-11-29T07:10:04.234Z,7.80
2018-11-29T07:12:32.763Z,7.80
2018-11-29T07:15:01.256Z,7.80
2018-11-29T07:17:29.828Z,7.70
2018-11-29T07:19:58.295Z,7.70
2018-11-29T07:22:26.811Z,7.70
2018-11-29T07:24:55.291Z,7.70
2018-11-29T07:27:23.769Z,7.70
2018-11-29T07:29:52.280Z,7.70
2018-11-29T07:32:24.016Z,7.60
2018-11-29T07:34:52.707Z,7.60
2018-11-29T07:37:21.173Z,7.60
2018-11-29T07:39:49.791Z,7.60
2018-11-29T07:42:18.318Z,7.60
2018-11-29T07:44:46.802Z,7.50
2018-11-29T07:47:15.337Z,7.50
2018-11-29T07:49:43.863Z,7.50
2018-11-29T07:52:12.372Z,7.60
2018-11-29T07:54:40.885Z,7.60
2018-11-29T07:57:09.416Z,7.60
2018-11-29T07:59:37.885Z,7.70
2018-11-29T08:02:06.390Z,7.70
2018-11-29T08:04:34.872Z,7.60
2018-11-29T08:14:11.719Z,7.60
2018-11-29T08:16:40.149Z,7.70
2018-11-29T08:19:08.648Z,7.70
2018-11-29T08:21:37.112Z,7.70
2018-11-29T08:24:06.282Z,7.80
2018-11-29T08:26:34.815Z,7.90
2018-11-29T08:29:03.346Z,7.90
2018-11-29T08:31:31.836Z,8.00
2018-11-29T08:34:00.319Z,8.00
2018-11-29T08:36:28.863Z,8.00
2018-11-29T08:38:57.312Z,7.90
2018-11-29T08:41:25.830Z,7.90
2018-11-29T08:43:54.386Z,7.90
2018-11-29T08:46:22.881Z,7.90
2018-11-29T08:48:51.335Z,7.90
2018-11-29T08:51:19.865Z,7.90
2018-11-29T08:53:48.436Z,7.90
2018-11-29T08:56:16.898Z,7.90
2018-11-29T08:58:45.432Z,7.80
2018-11-29T09:01:13.971Z,7.90
2018-11-29T09:03:42.435Z,7.90
2018-11-29T09:06:11.049Z,7.90
2018-11-29T09:08:39.499Z,7.90
2018-11-29T09:11:08.003Z,7.90
2018-11-29T09:13:36.488Z,7.90
2018-11-29T09:16:06.035Z,7.90
2018-11-29T09:18:34.650Z,7.90
2018-11-29T09:21:03.367Z,7.90
2018-11-29T09:23:31.999Z,7.90
2018-11-29T09:26:00.535Z,7.90
2018-11-29T09:28:29.016Z,7.90
2018-11-29T09:30:57.547Z,7.90
2018-11-29T09:33:26.125Z,7.90
2018-11-29T09:35:54.665Z,7.90
2018-11-29T09:38:23.151Z,7.90
2018-11-29T09:40:51.635Z,7.90
2018-11-29T09:43:20.118Z,7.80
2018-11-29T09:45:48.590Z,7.90
2018-11-29T09:48:17.067Z,7.90
2018-11-29T09:50:45.630Z,7.90
2018-11-29T09:53:14.143Z,7.90
2018-11-29T09:55:42.647Z,7.90
2018-11-29T09:58:11.130Z,7.90
2018-11-29T10:00:39.586Z,7.90
2018-11-29T10:03:10.458Z,7.90
2018-11-29T10:05:39.555Z,7.90
2018-11-29T10:08:12.016Z,7.90
2018-11-29T10:10:37.747Z,7.90
2018-11-29T10:13:06.408Z,7.90
2018-11-29T10:15:34.900Z,7.80
2018-11-29T10:18:03.414Z,7.80
2018-11-29T10:20:31.985Z,7.80
2018-11-29T10:23:00.540Z,7.80
2018-11-29T10:25:29.311Z,7.90
2018-11-29T10:28:02.003Z,7.90
2018-11-29T10:30:34.687Z,7.90
2018-11-29T10:33:03.254Z,7.90
2018-11-29T10:35:31.775Z,7.80
2018-11-29T10:38:00.340Z,7.80
2018-11-29T10:40:28.970Z,7.80
2018-11-29T10:42:58.522Z,7.80
2018-11-29T10:45:27.192Z,7.80
2018-11-29T10:47:56.295Z,7.80
2018-11-29T10:50:24.860Z,7.70
2018-11-29T10:52:53.590Z,7.70
2018-11-29T10:55:22.214Z,7.70
2018-11-29T10:57:50.772Z,7.70
2018-11-29T11:00:26.748Z,7.70
2018-11-29T11:03:07.576Z,7.70
2018-11-29T11:05:36.760Z,7.70
2018-11-29T11:08:08.481Z,7.80
2018-11-29T11:10:35.398Z,7.90
2018-11-29T11:13:04.003Z,7.90
2018-11-29T11:15:32.622Z,7.90
2018-11-29T11:18:01.371Z,7.90
2018-11-29T11:20:30.015Z,7.90
2018-11-29T11:22:58.807Z,7.80
2018-11-29T11:25:27.335Z,7.80
2018-11-29T11:27:55.980Z,7.80
2018-11-29T11:30:26.345Z,7.80
2018-11-29T11:32:55.098Z,7.80
2018-11-29T11:35:24.448Z,7.80
2018-11-29T11:37:53.031Z,7.80
2018-11-29T11:40:21.693Z,7.80
2018-11-29T11:42:50.302Z,7.80
2018-11-29T11:45:20.798Z,7.80
2018-11-29T11:47:49.300Z,7.80
2018-11-29T11:50:20.708Z,7.80
2018-11-29T11:52:49.598Z,7.80
2018-11-29T11:55:19.301Z,7.70
2018-11-29T11:57:47.693Z,7.80
2018-11-29T12:00:20.013Z,7.70
2018-11-29T12:02:50.575Z,7.70
2018-11-29T12:05:19.235Z,7.70
2018-11-29T12:07:48.241Z,7.70
2018-11-29T12:10:16.935Z,7.70
2018-11-29T12:12:45.542Z,7.70
2018-11-29T12:15:14.838Z,7.70
2018-11-29T12:17:45.595Z,7.60
2018-11-29T12:20:16.291Z,7.60
2018-11-29T12:22:44.914Z,7.60
2018-11-29T12:25:17.558Z,7.50
2018-11-29T12:27:46.108Z,7.50
2018-11-29T12:30:22.209Z,7.40
2018-11-29T12:32:51.404Z,7.40
2018-11-29T12:35:20.143Z,7.50
2018-11-29T12:37:48.759Z,7.50
2018-11-29T12:40:18.377Z,7.50
2018-11-29T12:42:47.021Z,7.70
2018-11-29T12:45:15.691Z,7.80
2018-11-29T12:47:44.614Z,7.90
2018-11-29T12:50:16.394Z,8.00
2018-11-29T12:52:45.110Z,8.00
2018-11-29T12:55:15.020Z,8.00
2018-11-29T12:57:43.740Z,8.10
2018-11-29T13:00:14.489Z,8.20
2018-11-29T13:02:47.926Z,8.10
2018-11-29T13:05:16.491Z,8.10
2018-11-29T13:07:45.007Z,8.10
2018-11-29T13:10:15.090Z,8.10
2018-11-29T13:12:43.649Z,8.10
2018-11-29T13:15:14.658Z,8.00
2018-11-29T13:17:43.153Z,8.00
2018-11-29T13:20:15.091Z,8.00
2018-11-29T13:22:43.683Z,7.90
2018-11-29T13:25:13.702Z,8.00
2018-11-29T13:27:42.364Z,8.00
2018-11-29T13:30:12.523Z,8.00
2018-11-29T13:32:41.147Z,8.00
2018-11-29T13:35:19.175Z,8.00
2018-11-29T13:37:53.831Z,8.00
2018-11-29T13:40:22.285Z,8.00
2018-11-29T13:42:50.788Z,8.00
2018-11-29T13:45:19.291Z,8.00
2018-11-29T13:47:47.751Z,8.00
2018-11-29T13:50:17.154Z,8.00
2018-11-29T13:52:46.015Z,8.00
2018-11-29T13:55:15.375Z,8.00
2018-11-29T13:57:45.118Z,8.10
2018-11-29T14:00:14.867Z,8.10
2018-11-29T14:02:46.951Z,8.10
2018-11-29T14:05:12.822Z,8.10
2018-11-29T14:07:41.372Z,8.20
2018-11-29T14:10:12.596Z,8.20
2018-11-29T14:12:41.055Z,8.20
2018-11-29T14:15:19.312Z,8.20
2018-11-29T14:17:47.927Z,8.20
2018-11-29T14:20:16.454Z,8.20
2018-11-29T14:22:45.065Z,8.20
2018-11-29T14:25:14.430Z,8.10
2018-11-29T14:27:45.152Z,8.20
2018-11-29T14:30:16.236Z,8.20
2018-11-29T14:32:44.812Z,8.30
2018-11-29T14:35:13.322Z,8.30
2018-11-29T14:37:41.948Z,8.30
2018-11-29T14:40:13.435Z,8.30
2018-11-29T14:42:41.941Z,8.40
2018-11-29T14:45:12.394Z,8.40
2018-11-29T14:47:40.916Z,8.40
2018-11-29T14:50:23.735Z,8.40
2018-11-29T14:52:52.215Z,8.40
2018-11-29T14:55:21.791Z,8.40
2018-11-29T14:57:49.363Z,8.40
2018-11-29T15:00:17.884Z,8.40
2018-11-29T15:02:46.420Z,8.40
2018-11-29T15:05:26.800Z,8.50
2018-11-29T15:07:55.288Z,8.50
2018-11-29T15:10:23.771Z,8.60
2018-11-29T15:12:52.255Z,8.70
2018-11-29T15:15:20.791Z,8.70
2018-11-29T15:17:50.199Z,8.70
2018-11-29T15:20:29.218Z,8.70
2018-11-29T15:22:57.749Z,8.80
2018-11-29T15:25:26.624Z,8.70
2018-11-29T15:27:55.121Z,8.70
2018-11-29T15:30:23.974Z,8.70
2018-11-29T15:32:52.727Z,8.70
2018-11-29T15:35:21.268Z,8.70
2018-11-29T15:37:49.805Z,8.80
2018-11-29T15:40:18.628Z,8.70
2018-11-29T15:42:47.467Z,8.70
2018-11-29T15:46:22.370Z,8.70
2018-11-29T15:48:51.235Z,8.70
2018-11-29T15:51:20.852Z,8.70
2018-11-29T15:53:49.448Z,8.70
2018-11-29T15:56:18.026Z,8.70
2018-11-29T15:58:46.554Z,8.70
2018-11-29T16:01:15.119Z,8.70
2018-11-29T16:03:43.697Z,8.70
2018-11-29T16:06:12.287Z,8.70
2018-11-29T16:08:40.839Z,8.70
2018-11-29T16:11:09.386Z,8.70
2018-11-29T16:13:37.992Z,8.70
2018-11-29T16:16:06.628Z,8.70
2018-11-29T16:18:35.286Z,8.70
2018-11-29T16:21:03.850Z,8.70
2018-11-29T16:23:32.394Z,8.70
2018-11-29T16:27:04.315Z,8.80
2018-11-29T16:29:32.941Z,8.80
2018-11-29T16:32:02.164Z,8.80
2018-11-29T16:34:30.983Z,8.80
2018-11-29T16:36:59.515Z,8.80
2018-11-29T16:39:28.030Z,8.80
2018-11-29T16:41:56.572Z,8.80
2018-11-29T16:44:25.043Z,8.70
2018-11-29T16:46:53.607Z,8.70
2018-11-29T16:49:22.068Z,8.70
2018-11-29T16:51:50.597Z,8.70
2018-11-29T16:54:19.038Z,8.80
2018-11-29T16:56:47.552Z,8.80
2018-11-29T16:59:16.047Z,8.80
2018-11-29T17:01:44.587Z,8.80
2018-11-29T17:04:13.102Z,8.80
2018-11-29T17:06:41.995Z,8.80
2018-11-29T17:09:10.550Z,8.70
2018-11-29T17:11:39.076Z,8.80
2018-11-29T17:14:07.650Z,8.70
2018-11-29T17:16:36.136Z,8.70
2018-11-29T17:19:04.686Z,8.70
2018-11-29T17:21:33.202Z,8.70
2018-11-29T17:24:01.717Z,8.70
2018-11-29T17:26:30.290Z,8.70
2018-11-29T17:28:58.847Z,8.70
2018-11-29T17:31:27.361Z,8.70
2018-11-29T17:33:55.918Z,8.70
2018-11-29T17:36:24.350Z,8.70
2018-11-29T17:38:52.908Z,8.60
2018-11-29T17:41:21.511Z,8.60
2018-11-29T17:43:50.406Z,8.60
2018-11-29T17:46:18.926Z,8.60
2018-11-29T17:48:47.769Z,8.60
2018-11-29T17:51:16.951Z,8.60
2018-11-29T17:53:46.535Z,8.60
2018-11-29T17:56:15.062Z,8.60
2018-11-29T17:58:43.570Z,8.50
2018-11-29T18:01:12.158Z,8.50
2018-11-29T18:03:40.680Z,8.50
2018-11-29T18:06:09.216Z,8.50
2018-11-29T18:08:37.976Z,8.50
2018-11-29T18:11:07.591Z,8.50
2018-11-29T18:13:37.378Z,8.60
2018-11-29T18:16:06.663Z,8.60
2018-11-29T18:18:35.134Z,8.60
2018-11-29T18:21:05.279Z,8.70
2018-11-29T18:23:34.935Z,8.70
2018-11-29T18:26:03.562Z,8.70
2018-11-29T18:28:32.083Z,8.70
2018-11-29T18:31:01.680Z,8.70
2018-11-29T18:33:30.243Z,8.70
2018-11-29T18:35:58.842Z,8.70
2018-11-29T18:38:29.363Z,8.70
2018-11-29T18:40:58.988Z,8.80
2018-11-29T18:43:27.641Z,8.70
2018-11-29T18:45:56.236Z,8.70
2018-11-29T18:48:24.708Z,8.70
2018-11-29T18:50:54.503Z,8.80
2018-11-29T18:53:23.945Z,8.70
2018-11-29T18:55:53.102Z,8.80
2018-11-29T18:58:21.631Z,8.70
2018-11-29T19:00:50.575Z,8.70
2018-11-29T19:03:19.083Z,8.80
2018-11-29T19:05:47.589Z,8.70
2018-11-29T19:08:16.324Z,8.70
2018-11-29T19:10:44.821Z,8.70
2018-11-29T19:13:14.672Z,8.70
2018-11-29T19:15:43.197Z,8.70
2018-11-29T19:18:11.977Z,8.60
2018-11-29T19:20:40.583Z,8.60
2018-11-29T19:23:09.906Z,8.60
2018-11-29T19:25:38.419Z,8.50
2018-11-29T19:28:08.036Z,8.50
2018-11-29T19:30:38.297Z,8.50
2018-11-29T19:33:11.159Z,8.50
2018-11-29T19:35:39.781Z,8.50
2018-11-29T19:38:08.759Z,8.50
2018-11-29T19:40:37.715Z,8.50
2018-11-29T19:43:08.325Z,8.50
2018-11-29T19:45:38.019Z,8.50
2018-11-29T19:48:08.338Z,8.50
2018-11-29T19:50:36.887Z,8.60
2018-11-29T19:53:09.343Z,8.60
2018-11-29T19:55:39.279Z,8.60
2018-11-29T19:58:08.005Z,8.60
2018-11-29T20:00:37.754Z,8.60
2018-11-29T20:03:07.390Z,8.60
2018-11-29T20:05:36.222Z,8.70
2018-11-29T20:08:05.650Z,8.70
2018-11-29T20:10:34.600Z,8.80
2018-11-29T20:13:06.547Z,8.80
2018-11-29T20:15:37.544Z,8.80
2018-11-29T20:18:07.047Z,8.80
2018-11-29T20:20:36.394Z,8.70
2018-11-29T20:23:05.095Z,8.80
2018-11-29T20:25:33.788Z,8.80
2018-11-29T20:28:02.542Z,8.80
2018-11-29T20:30:45.718Z,8.80
2018-11-29T20:33:16.705Z,8.70
2018-11-29T20:35:46.795Z,8.70
2018-11-29T20:38:15.443Z,8.70
2018-11-29T20:40:45.578Z,8.70
2018-11-29T20:43:15.651Z,8.70
2018-11-29T20:45:47.462Z,8.70
2018-11-29T20:48:19.423Z,8.80
2018-11-29T20:50:48.891Z,8.80
2018-11-29T20:53:32.498Z,8.80
2018-11-29T20:56:02.853Z,8.80
2018-11-29T20:58:31.689Z,8.80
2018-11-29T21:01:00.506Z,8.80
2018-11-29T21:03:29.092Z,8.90
2018-11-29T21:05:58.757Z,8.90
2018-11-29T21:08:27.347Z,8.90
2018-11-29T21:10:55.830Z,8.90
2018-11-29T21:13:24.296Z,8.90
2018-11-29T21:15:53.226Z,8.90
2018-11-29T21:18:21.888Z,8.90
2018-11-29T21:20:50.332Z,8.90
2018-11-29T21:23:18.903Z,8.90
2018-11-29T21:25:47.498Z,9.00
2018-11-29T21:28:17.902Z,9.00
2018-11-29T21:30:46.359Z,9.00
2018-11-29T21:33:15.963Z,9.10
2018-11-29T21:35:44.416Z,9.10
2018-11-29T21:38:16.076Z,9.10
2018-11-29T21:41:02.332Z,9.10
2018-11-29T21:43:30.853Z,9.20
2018-11-29T21:45:59.794Z,9.20
2018-11-29T21:48:28.407Z,9.20
2018-11-29T21:50:57.083Z,9.20
2018-11-29T21:53:25.711Z,9.20
2018-11-29T21:55:54.270Z,9.30
2018-11-29T21:58:22.860Z,9.30
2018-11-29T22:00:51.623Z,9.30
2018-11-29T22:03:20.239Z,9.30
2018-11-29T22:05:48.855Z,9.20
2018-11-29T22:08:17.639Z,9.30
2018-11-29T22:10:46.182Z,9.20
2018-11-29T22:13:14.745Z,9.20
2018-11-29T22:15:43.506Z,9.20
2018-11-29T22:18:14.935Z,9.20
2018-11-29T22:20:43.574Z,9.20
2018-11-29T22:23:12.214Z,9.20
2018-11-29T22:25:41.392Z,9.20
2018-11-29T22:28:10.259Z,9.20
2018-11-29T22:30:38.798Z,9.20
2018-11-29T22:33:07.453Z,9.20
2018-11-29T22:35:36.074Z,9.20
2018-11-29T22:38:04.796Z,9.20
2018-11-29T22:40:33.548Z,9.20
2018-11-29T22:43:02.187Z,9.20
2018-11-29T22:45:30.771Z,9.20
2018-11-29T22:47:59.429Z,9.20
2018-11-29T22:50:28.784Z,9.20
2018-11-29T22:52:57.415Z,9.20
2018-11-29T22:55:25.987Z,9.20
2018-11-29T22:57:54.617Z,9.20
2018-11-29T23:00:23.279Z,9.20
2018-11-29T23:02:52.960Z,9.20
2018-11-29T23:05:22.186Z,9.20
2018-11-29T23:07:50.754Z,9.20
2018-11-29T23:10:19.386Z,9.20
2018-11-29T23:12:48.121Z,9.20
2018-11-29T23:15:16.777Z,9.20
2018-11-29T23:17:45.356Z,9.20
2018-11-29T23:20:14.256Z,9.20
2018-11-29T23:22:43.729Z,9.20
2018-11-29T23:25:13.328Z,9.20
2018-11-29T23:27:41.945Z,9.20
2018-11-29T23:30:18.255Z,9.20
2018-11-29T23:32:46.879Z,9.20
2018-11-29T23:35:15.999Z,9.20
2018-11-29T23:37:44.477Z,9.20
2018-11-29T23:40:14.369Z,9.20
2018-11-29T23:42:43.061Z,9.20
2018-11-29T23:45:12.567Z,9.20
2018-11-29T23:47:41.366Z,9.20
2018-11-29T23:50:19.460Z,9.20
2018-11-29T23:52:48.010Z,9.20
2018-11-29T23:55:19.727Z,9.10
2018-11-29T23:57:48.194Z,9.10
